Bellevue, NE (68005)

5:14 PM CDT on May 24, 2015 (GMT -0500)
StormTracker--Bellevue, NE | | Change Station
CLOSE
Current Station
Personal Weather Station
Location: Bellevue, NE
Elevation: 1171 ft
Nearby Weather Stations

Elev 1171 ft 41.16 °N, 95.92 °W | Updated 21 seconds ago

Partly Cloudy
Partly Cloudy
69.2 °F
Feels Like 69.2 °F
N
0.0
Wind Variable Wind from WNW
Gusts 3.0 mph

Today
High -- | Low -- °F
--% Chance of Precip.
Yesterday
High -- | Low -- °F
Precip. -- in
5:58 AM 8:43 PM
Waxing Crescent, 42% visible
Pressure 29.79 in
Visibility 10.0 miles
Clouds Few 4300 ft
Dew Point 63 °F
Humidity 81%
Rainfall 0.17 in
Snow Depth Not available.
UV 5 out of 12
Pollen .50 out of 12
Air Quality Not available.
Flu Activity No Activity
METAR KOFF 242158Z AUTO 23005KT 10SM FEW043 21/17 A2979 RMK AO2 SLP087 T02110168 $

More Conditions Fewer Conditions

Pressure 29.79 in
Visibility 10.0 miles
Clouds Few 4300 ft
Dew Point 63 °F
Humidity 81%
Rainfall 0.17 in
Snow Depth Not available.
UV 5 out of 12
Pollen .50 out of 12
Air Quality Not available.
Flu Activity No Activity
METAR KOFF 242158Z AUTO 23005KT 10SM FEW043 21/17 A2979 RMK AO2 SLP087 T02110168 $

More Conditions Fewer Conditions

10-Day Weather Forecast

Almanac

Astronomy

May. 24, 2015 Rise Set
Actual Time
Civil Twilight
Nautical Twilight
Astronomical Twilight
Moon
Length of Visible Light
Length of Day
Tomorrow will be .
, % of the Moon is Illuminated

Today's Extremes

State Highs State Lows

Community

WunderPhotos

Upload Photos

1,823,877 photos uploaded!

WunderBlogs® & News

Nearby

Air Quality

  Air Quality AQ Index Pollutant
Not available.

Snow Depth

Station Depth Elevation

Earthquake Activity

City Distance Mag. Time & Date
Minimum magnitude displayed is 2.5.

Coastal Water Temperatures

Place Temperature

Stations

Nearby Weather Stations

Station Location Temp. Windchill Dew Point Humidity Wind Precip. Elev Updated Type